Time;durP1;ratioP1;P1;durP2;ratioP2;P2;SDS_P1;SDS_P2;PMS_P1;PMS_P2;Temp;Humidity;BMP_temperature;BMP_pressure;BME280_temperature;BME280_humidity;BME280_pressure;Samples;Min_cycle;Max_cycle;Signal;HPM_P1;HPM_P2
2022/05/17 00:01:57;;;;;;;8.38;4.40;;;23.40;81.30;;;;;;4932684;29;20540;-64
2022/05/17 00:04:22;;;;;;;9.48;4.90;;;23.60;84.50;;;;;;4937487;29;20079;-65
2022/05/17 00:06:48;;;;;;;10.93;4.90;;;23.60;81.40;;;;;;4937440;29;20417;-65
2022/05/17 00:09:16;;;;;;;12.18;4.90;;;23.80;81.90;;;;;;4920831;29;20099;-66
2022/05/17 00:11:44;;;;;;;8.07;4.72;;;23.60;84.70;;;;;;4920741;29;20058;-65
2022/05/17 00:14:11;;;;;;;9.52;4.38;;;23.80;84.60;;;;;;4910005;29;20054;-66
2022/05/17 00:16:37;;;;;;;8.02;4.70;;;23.60;81.80;;;;;;4920319;29;20058;-66
2022/05/17 00:19:02;;;;;;;8.65;4.38;;;23.70;81.70;;;;;;4907119;29;20486;-64
2022/05/17 00:21:28;;;;;;;9.52;4.15;;;23.60;81.30;;;;;;4919787;29;20055;-65
2022/05/17 00:23:54;;;;;;;11.80;4.43;;;23.60;84.40;;;;;;4904128;29;20051;-64
2022/05/17 00:26:21;;;;;;;11.18;4.38;;;23.60;81.60;;;;;;4904338;29;20047;-64
2022/05/17 00:28:47;;;;;;;8.27;3.72;;;23.40;84.60;;;;;;4925529;29;20047;-66
2022/05/17 00:31:12;;;;;;;7.90;4.28;;;23.30;81.50;;;;;;4927830;29;20052;-66
2022/05/17 00:33:38;;;;;;;7.05;3.50;;;23.50;84.40;;;;;;4939044;29;20059;-66
2022/05/17 00:36:04;;;;;;;8.75;4.15;;;23.70;81.60;;;;;;4930725;29;20043;-66
2022/05/17 00:38:30;;;;;;;10.18;4.47;;;23.50;84.30;;;;;;4891436;29;20058;-65
2022/05/17 00:40:56;;;;;;;10.27;4.18;;;23.40;84.60;;;;;;4928236;29;20055;-66
2022/05/17 00:46:17;;;;;;;8.45;4.20;;;23.80;82.30;;;;;;4922130;29;20043;-66
2022/05/17 00:48:43;;;;;;;9.45;4.45;;;23.30;84.40;;;;;;4920153;29;20116;-66
2022/05/17 00:51:09;;;;;;;7.40;3.70;;;23.50;84.40;;;;;;4920400;29;20127;-66
2022/05/17 00:53:34;;;;;;;6.90;4.15;;;23.50;81.50;;;;;;4914826;29;20054;-66
2022/05/17 00:56:02;;;;;;;9.23;4.03;;;23.40;81.40;;;;;;4922257;29;20118;-66
2022/05/17 00:58:38;;;;;;;8.88;4.20;;;23.60;84.80;;;;;;4938447;29;20090;-66
2022/05/17 01:01:06;;;;;;;8.57;4.13;;;23.80;82.30;;;;;;4898152;29;20170;-66
2022/05/17 01:03:41;;;;;;;10.15;4.57;;;23.60;81.80;;;;;;4904235;29;20146;-66
2022/05/17 01:06:06;;;;;;;8.35;3.90;;;23.40;82.00;;;;;;4920337;29;20056;-66
2022/05/17 01:08:32;;;;;;;9.40;4.30;;;23.60;81.60;;;;;;4887960;29;20054;-66
2022/05/17 01:10:58;;;;;;;10.77;4.43;;;23.30;81.40;;;;;;4921662;29;20043;-66
2022/05/17 01:16:08;;;;;;;8.95;3.97;;;23.40;80.70;;;;;;4912335;29;20062;-66
2022/05/17 01:18:34;;;;;;;8.23;3.45;;;23.30;84.60;;;;;;4903376;29;20422;-66
2022/05/17 01:21:02;;;;;;;11.15;4.47;;;;;;;;;;4904158;29;20448;-66
2022/05/17 01:23:30;;;;;;;10.15;4.35;;;23.40;84.30;;;;;;4919324;29;20051;-66
2022/05/17 01:25:56;;;;;;;8.20;3.88;;;23.30;81.50;;;;;;4877484;29;20039;-66
2022/05/17 01:28:25;;;;;;;9.43;3.95;;;23.40;81.50;;;;;;4936817;29;20453;-66
2022/05/17 01:30:51;;;;;;;7.07;3.33;;;23.20;84.70;;;;;;4906646;29;20059;-66
2022/05/17 01:33:17;;;;;;;9.43;3.70;;;23.60;81.40;;;;;;4959043;29;20054;-66
2022/05/17 01:35:43;;;;;;;8.10;3.47;;;23.30;84.30;;;;;;4920911;29;20055;-66
2022/05/17 01:38:09;;;;;;;8.73;3.90;;;23.30;81.40;;;;;;4922877;29;20051;-64
2022/05/17 01:40:35;;;;;;;10.07;3.75;;;23.10;81.40;;;;;;4923074;29;20398;-64
2022/05/17 01:43:00;;;;;;;9.57;3.53;;;23.40;84.40;;;;;;4941221;29;20517;-64
2022/05/17 01:45:26;;;;;;;9.30;3.72;;;23.40;83.70;;;;;;4922870;29;20079;-65
2022/05/17 01:47:52;;;;;;;10.15;3.92;;;23.30;81.40;;;;;;4956454;29;20096;-66
2022/05/17 01:50:18;;;;;;;9.45;3.65;;;23.30;84.30;;;;;;4941527;29;20107;-66
2022/05/17 01:52:44;;;;;;;8.82;3.85;;;23.20;81.10;;;;;;4951144;29;20043;-64
2022/05/17 01:55:10;;;;;;;8.00;3.58;;;23.30;84.20;;;;;;4924967;29;20054;-65
2022/05/17 01:57:36;;;;;;;8.15;3.40;;;23.00;81.20;;;;;;4930707;29;20414;-64
2022/05/17 02:00:04;;;;;;;8.30;3.60;;;23.10;84.20;;;;;;4939587;29;20083;-64
2022/05/17 02:02:30;;;;;;;11.00;3.63;;;23.30;84.30;;;;;;4923357;29;20087;-64
2022/05/17 02:04:55;;;;;;;9.52;3.83;;;23.20;81.40;;;;;;4922697;29;20134;-64
2022/05/17 02:07:21;;;;;;;9.18;3.45;;;23.00;84.30;;;;;;4924410;29;20046;-65
2022/05/17 02:09:47;;;;;;;9.60;3.78;;;23.10;81.30;;;;;;4940391;29;20129;-64
2022/05/17 02:12:13;;;;;;;8.30;3.60;;;23.10;84.40;;;;;;4941550;29;20051;-64
2022/05/17 02:14:39;;;;;;;7.40;3.08;;;23.20;81.20;;;;;;4939074;29;20054;-64
2022/05/17 02:17:05;;;;;;;7.80;3.63;;;;;;;;;;4958324;29;20050;-65
2022/05/17 02:19:31;;;;;;;8.75;3.50;;;23.10;84.30;;;;;;4924464;29;20055;-65
2022/05/17 02:21:56;;;;;;;10.35;3.80;;;23.20;81.10;;;;;;4891183;29;20079;-65
2022/05/17 02:24:22;;;;;;;9.25;3.50;;;23.20;84.20;;;;;;4922735;29;20075;-64
2022/05/17 02:26:48;;;;;;;7.22;2.80;;;;;;;;;;4890591;29;20048;-64
2022/05/17 02:29:15;;;;;;;8.70;3.30;;;23.10;79.70;;;;;;4928516;29;20087;-64
2022/05/17 02:31:40;;;;;;;10.35;3.97;;;23.00;84.10;;;;;;4925032;29;20106;-64
2022/05/17 02:34:06;;;;;;;7.35;3.40;;;23.00;84.00;;;;;;4921399;29;20048;-65
2022/05/17 02:36:32;;;;;;;8.25;3.10;;;23.00;81.10;;;;;;4924046;29;20086;-65
2022/05/17 02:38:57;;;;;;;9.13;3.28;;;23.00;84.20;;;;;;4954267;29;20492;-65
2022/05/17 02:41:23;;;;;;;7.30;3.25;;;22.90;84.00;;;;;;4937890;29;20051;-64
2022/05/17 02:43:49;;;;;;;9.00;3.08;;;23.00;84.10;;;;;;4938296;29;20054;-65
2022/05/17 02:46:15;;;;;;;8.23;2.83;;;23.10;84.20;;;;;;4946886;29;20043;-65
2022/05/17 02:48:41;;;;;;;7.53;3.13;;;23.20;81.30;;;;;;4957831;29;20485;-65
2022/05/17 02:51:11;;;;;;;10.60;3.60;;;23.10;81.40;;;;;;4953559;29;20122;-65
2022/05/17 02:53:38;;;;;;;10.65;3.92;;;23.10;81.50;;;;;;4938806;29;20078;-64
2022/05/17 02:56:04;;;;;;;9.45;2.80;;;23.30;81.20;;;;;;4922405;29;20064;-65
2022/05/17 02:58:29;;;;;;;10.68;3.80;;;23.20;81.00;;;;;;4940843;29;20134;-65
2022/05/17 03:00:56;;;;;;;8.80;3.70;;;23.00;81.30;;;;;;4947090;29;20117;-65
2022/05/17 03:03:21;;;;;;;9.80;3.95;;;23.00;81.20;;;;;;4952051;29;20086;-65
2022/05/17 03:05:47;;;;;;;7.88;2.92;;;23.20;81.30;;;;;;4957805;29;20039;-65
2022/05/17 03:08:13;;;;;;;8.63;3.30;;;23.00;84.20;;;;;;4943524;29;20040;-65
2022/05/17 03:10:38;;;;;;;8.07;3.33;;;23.10;84.20;;;;;;4930931;29;20055;-65
2022/05/17 03:13:04;;;;;;;7.85;3.55;;;23.00;84.10;;;;;;4947658;29;20087;-66
2022/05/17 03:15:30;;;;;;;7.88;2.90;;;23.00;81.20;;;;;;4940325;29;20517;-64
2022/05/17 03:17:56;;;;;;;8.73;3.83;;;22.70;84.30;;;;;;4919469;29;20147;-65
2022/05/17 03:20:22;;;;;;;9.50;3.08;;;22.80;84.10;;;;;;4920685;29;20126;-65
2022/05/17 03:22:48;;;;;;;8.88;3.15;;;23.10;84.60;;;;;;4925249;29;20463;-65
2022/05/17 03:25:14;;;;;;;8.00;3.25;;;22.80;84.10;;;;;;4923429;29;20134;-65
2022/05/17 03:27:39;;;;;;;8.25;3.00;;;22.80;84.80;;;;;;4905306;29;20125;-65
2022/05/17 03:30:05;;;;;;;7.85;3.00;;;23.20;81.40;;;;;;4937988;29;20036;-66
2022/05/17 03:32:32;;;;;;;8.07;3.60;;;22.90;80.90;;;;;;4917577;29;20105;-66
2022/05/17 03:34:58;;;;;;;7.63;3.30;;;22.90;81.30;;;;;;4908422;29;20130;-66
2022/05/17 03:37:23;;;;;;;9.38;3.78;;;22.90;84.50;;;;;;4956843;29;20058;-66
2022/05/17 03:39:51;;;;;;;7.85;3.17;;;23.00;84.50;;;;;;4954735;29;20047;-66
2022/05/17 03:42:18;;;;;;;7.72;3.25;;;22.90;84.20;;;;;;4918465;29;20058;-66
2022/05/17 03:44:44;;;;;;;8.80;3.10;;;22.80;81.20;;;;;;4920621;29;20148;-66
2022/05/17 03:47:10;;;;;;;7.40;2.80;;;23.10;84.20;;;;;;4939697;29;20122;-66
2022/05/17 03:49:36;;;;;;;9.43;3.42;;;22.90;81.30;;;;;;4907472;29;20039;-65
2022/05/17 03:52:03;;;;;;;6.25;2.70;;;22.70;83.90;;;;;;4954904;29;20494;-65
2022/05/17 03:54:29;;;;;;;7.30;3.28;;;22.90;80.90;;;;;;4921986;29;20136;-66
2022/05/17 03:56:55;;;;;;;9.95;3.08;;;22.90;81.00;;;;;;4903711;29;20089;-66
2022/05/17 03:59:21;;;;;;;7.90;3.28;;;23.00;84.10;;;;;;4939172;29;20187;-66
2022/05/17 04:01:47;;;;;;;7.85;3.00;;;22.60;80.90;;;;;;4922543;29;20109;-66
2022/05/17 04:04:13;;;;;;;9.10;2.92;;;;;;;;;;4885767;29;20055;-66
2022/05/17 04:06:39;;;;;;;8.30;2.67;;;22.90;79.20;;;;;;4937226;29;20051;-66
2022/05/17 04:09:05;;;;;;;8.15;3.13;;;22.80;83.90;;;;;;4904879;29;20043;-66
2022/05/17 04:11:34;;;;;;;7.72;2.78;;;22.80;81.10;;;;;;4921113;29;20055;-66
2022/05/17 04:14:00;;;;;;;11.18;3.30;;;23.10;79.90;;;;;;4925421;29;20050;-65
2022/05/17 04:16:30;;;;;;;8.10;3.00;;;22.90;84.10;;;;;;4953546;29;20057;-66
2022/05/17 04:18:56;;;;;;;9.35;3.05;;;22.90;81.40;;;;;;4904775;29;20407;-66
2022/05/17 04:21:22;;;;;;;8.35;3.45;;;22.90;81.00;;;;;;4933208;29;20059;-65
2022/05/17 04:23:47;;;;;;;9.52;3.17;;;23.00;81.00;;;;;;4932148;29;20111;-66
2022/05/17 04:26:14;;;;;;;7.97;2.92;;;22.90;83.80;;;;;;4938988;29;20054;-66
2022/05/17 04:28:40;;;;;;;10.02;3.15;;;22.90;81.00;;;;;;4919799;29;20052;-66
2022/05/17 04:31:05;;;;;;;6.10;3.13;;;22.90;83.70;;;;;;4904473;29;20055;-66
2022/05/17 04:33:31;;;;;;;6.55;2.92;;;22.90;80.80;;;;;;4928632;29;20509;-65
2022/05/17 04:35:57;;;;;;;6.45;2.78;;;23.00;80.90;;;;;;4895770;29;20536;-66
2022/05/17 04:38:23;;;;;;;7.05;2.92;;;;;;;;;;4936636;29;20078;-65
2022/05/17 04:40:49;;;;;;;6.53;2.90;;;23.00;83.80;;;;;;4889246;29;20043;-66
2022/05/17 04:43:15;;;;;;;7.65;3.38;;;23.20;84.30;;;;;;4921611;29;20048;-66
2022/05/17 04:45:44;;;;;;;9.02;3.15;;;23.10;80.40;;;;;;4919550;29;20051;-66
2022/05/17 04:48:10;;;;;;;7.95;2.97;;;23.20;81.10;;;;;;4936890;29;20134;-66
2022/05/17 04:50:36;;;;;;;7.97;2.75;;;23.30;80.90;;;;;;4905915;29;20118;-65
2022/05/17 04:53:03;;;;;;;9.77;3.03;;;;;;;;;;4955406;29;20178;-65
2022/05/17 04:55:29;;;;;;;7.03;3.00;;;;;;;;;;4935411;29;20102;-66
2022/05/17 04:57:55;;;;;;;9.15;2.97;;;23.30;78.80;;;;;;4934416;29;20059;-66
2022/05/17 05:00:23;;;;;;;8.25;3.05;;;23.10;80.50;;;;;;4922885;29;20051;-66
2022/05/17 05:02:49;;;;;;;6.93;2.63;;;23.40;81.30;;;;;;4938697;29;20094;-64
2022/05/17 05:05:15;;;;;;;6.82;3.03;;;23.50;83.10;;;;;;4925052;29;20048;-65
2022/05/17 05:07:41;;;;;;;8.20;3.05;;;23.70;82.70;;;;;;4925565;29;20126;-65
2022/05/17 05:10:07;;;;;;;6.85;2.72;;;24.00;80.10;;;;;;4955335;29;20122;-64
2022/05/17 05:12:34;;;;;;;6.88;2.60;;;23.90;79.10;;;;;;4938350;29;20050;-64
2022/05/17 05:15:00;;;;;;;9.80;3.00;;;24.00;79.40;;;;;;4931627;29;20075;-64
2022/05/17 05:17:32;;;;;;;7.47;3.05;;;23.90;79.10;;;;;;4919667;29;20111;-64
2022/05/17 05:19:58;;;;;;;8.23;2.80;;;24.20;79.10;;;;;;4933043;29;20044;-64
2022/05/17 05:22:23;;;;;;;7.38;2.75;;;24.50;78.60;;;;;;4919395;29;20047;-66
2022/05/17 05:24:49;;;;;;;7.90;2.90;;;24.20;78.20;;;;;;4908485;29;20121;-65
2022/05/17 05:27:15;;;;;;;7.40;3.08;;;24.70;78.20;;;;;;4952061;29;20047;-65
2022/05/17 05:29:41;;;;;;;6.95;3.30;;;24.60;78.10;;;;;;4926698;29;20486;-65
2022/05/17 05:32:07;;;;;;;7.80;2.83;;;25.10;78.00;;;;;;4936096;29;20066;-66
2022/05/17 05:34:33;;;;;;;8.93;2.42;;;25.00;77.60;;;;;;4918892;29;20048;-66
2022/05/17 05:36:58;;;;;;;8.60;3.00;;;25.10;77.60;;;;;;4903980;29;20056;-65
2022/05/17 05:39:24;;;;;;;8.43;3.05;;;25.00;77.40;;;;;;4922159;29;20491;-66
2022/05/17 05:41:50;;;;;;;7.63;3.05;;;25.10;77.20;;;;;;4924520;29;20130;-64
2022/05/17 05:44:16;;;;;;;6.05;2.92;;;25.30;77.20;;;;;;4934816;28;20143;-65
2022/05/17 05:46:41;;;;;;;6.20;3.00;;;25.20;76.50;;;;;;4936950;29;20048;-65
2022/05/17 05:49:07;;;;;;;7.07;2.70;;;25.30;76.80;;;;;;4925594;29;20043;-64
2022/05/17 05:51:33;;;;;;;6.95;3.00;;;25.50;76.70;;;;;;4946651;28;20520;-66
2022/05/17 05:53:59;;;;;;;5.78;2.58;;;25.40;76.50;;;;;;4955158;29;20043;-65
2022/05/17 05:56:24;;;;;;;6.07;2.60;;;25.60;76.50;;;;;;4954880;29;20408;-65
2022/05/17 05:58:50;;;;;;;5.95;2.53;;;25.50;76.30;;;;;;4947292;29;20069;-65
2022/05/17 06:01:16;;;;;;;6.68;2.92;;;25.50;76.40;;;;;;4951179;29;20043;-66
2022/05/17 06:03:41;;;;;;;7.35;3.10;;;25.50;76.00;;;;;;4955195;29;20481;-66
2022/05/17 06:06:10;;;;;;;7.93;3.00;;;25.60;76.30;;;;;;4937908;29;20122;-66
2022/05/17 06:08:36;;;;;;;8.18;3.08;;;25.70;75.40;;;;;;4954550;29;20098;-66
2022/05/17 06:11:02;;;;;;;6.03;2.97;;;25.60;76.10;;;;;;4932520;29;20047;-64
2022/05/17 06:13:28;;;;;;;6.60;2.95;;;25.60;76.00;;;;;;4918725;29;20051;-64
2022/05/17 06:15:54;;;;;;;6.63;2.83;;;25.50;75.80;;;;;;4941475;29;20043;-64
2022/05/17 06:18:20;;;;;;;7.30;2.67;;;25.80;75.90;;;;;;4939609;29;20130;-64
2022/05/17 06:20:53;;;;;;;6.10;2.60;;;26.10;76.00;;;;;;4958535;29;20043;-64
2022/05/17 06:23:19;;;;;;;7.03;2.50;;;26.00;76.20;;;;;;4954142;29;20062;-65
2022/05/17 06:25:45;;;;;;;7.50;2.72;;;26.00;75.90;;;;;;4958629;29;20444;-65
2022/05/17 06:28:11;;;;;;;6.93;2.72;;;26.00;75.40;;;;;;4925415;29;20139;-64
2022/05/17 06:30:37;;;;;;;6.93;3.33;;;26.00;75.50;;;;;;4941212;29;20122;-66
2022/05/17 06:33:06;;;;;;;6.57;2.92;;;26.30;75.70;;;;;;4929270;29;20051;-64
2022/05/17 06:35:32;;;;;;;8.38;3.25;;;26.00;75.60;;;;;;4952421;29;20055;-64
2022/05/17 06:37:58;;;;;;;6.72;2.80;;;26.00;75.20;;;;;;4956142;29;20047;-66
2022/05/17 06:40:24;;;;;;;8.13;3.40;;;26.30;75.50;;;;;;4958173;29;20122;-66
2022/05/17 06:42:49;;;;;;;8.77;3.95;;;26.30;75.40;;;;;;4937906;29;20122;-64
2022/05/17 06:45:15;;;;;;;7.60;3.90;;;26.40;75.30;;;;;;4939831;29;20067;-66
2022/05/17 06:47:41;;;;;;;7.30;4.05;;;26.10;75.00;;;;;;4941339;29;20389;-65
2022/05/17 06:50:07;;;;;;;8.13;4.75;;;26.20;75.00;;;;;;4917500;29;20048;-66
2022/05/17 06:52:33;;;;;;;8.80;5.30;;;26.20;74.60;;;;;;4913708;29;20077;-66
2022/05/17 06:55:00;;;;;;;11.35;5.93;;;26.50;74.90;;;;;;4921527;29;20140;-66
2022/05/17 06:57:26;;;;;;;8.98;5.88;;;26.50;74.80;;;;;;4938065;29;20386;-66
2022/05/17 06:59:51;;;;;;;10.80;7.35;;;26.30;74.80;;;;;;4906653;29;20518;-65
2022/05/17 07:02:17;;;;;;;10.05;7.63;;;26.40;74.60;;;;;;4905929;29;20134;-68
2022/05/17 07:04:43;;;;;;;12.63;8.40;;;26.50;74.80;;;;;;4921275;29;20043;-67
2022/05/17 07:07:09;;;;;;;13.70;8.38;;;26.60;74.70;;;;;;4921918;29;20127;-67
2022/05/17 07:09:35;;;;;;;14.30;9.23;;;26.70;74.50;;;;;;4900402;29;20055;-67
2022/05/17 07:14:45;;;;;;;14.02;8.55;;;26.70;73.70;;;;;;4920123;29;20051;-67
2022/05/17 07:17:16;;;;;;;12.55;8.27;;;26.60;74.60;;;;;;4922384;29;21729;-67
2022/05/17 07:19:43;;;;;;;13.07;8.43;;;26.80;75.10;;;;;;4924455;29;20141;-67
2022/05/17 07:22:10;;;;;;;12.88;8.55;;;26.80;75.00;;;;;;4909193;28;20043;-67
2022/05/17 07:24:36;;;;;;;15.52;8.55;;;26.70;74.80;;;;;;4945894;28;20118;-67
2022/05/17 07:27:03;;;;;;;13.23;8.77;;;26.90;74.90;;;;;;4938975;29;20083;-67
2022/05/17 07:29:28;;;;;;;14.18;8.30;;;26.80;74.90;;;;;;4920792;29;20126;-67
2022/05/17 07:31:54;;;;;;;13.65;8.20;;;26.90;74.30;;;;;;4938196;29;20431;-66
2022/05/17 07:34:21;;;;;;;15.25;8.55;;;26.80;74.20;;;;;;4928522;29;20437;-66
2022/05/17 07:36:48;;;;;;;12.20;8.00;;;26.70;74.50;;;;;;4921641;29;20055;-67
2022/05/17 07:39:13;;;;;;;13.00;8.38;;;26.60;74.60;;;;;;4911293;29;20054;-67
2022/05/17 07:41:41;;;;;;;14.52;8.48;;;26.90;74.80;;;;;;4923732;29;20134;-66
2022/05/17 07:44:07;;;;;;;12.88;8.73;;;26.70;74.60;;;;;;4937744;29;20464;-67
2022/05/17 07:46:33;;;;;;;15.18;9.65;;;27.00;74.70;;;;;;4919983;29;20051;-66
2022/05/17 07:48:58;;;;;;;12.50;9.10;;;26.60;74.50;;;;;;4953508;29;20035;-66
2022/05/17 07:51:24;;;;;;;15.65;9.52;;;26.90;74.50;;;;;;4939422;29;20055;-66
2022/05/17 07:53:50;;;;;;;12.60;8.18;;;27.00;74.60;;;;;;4939814;29;20130;-66
2022/05/17 07:56:16;;;;;;;12.70;8.18;;;27.20;74.30;;;;;;4939360;29;20109;-66
2022/05/17 07:58:42;;;;;;;12.35;7.50;;;27.00;74.40;;;;;;4943157;29;20060;-66
2022/05/17 08:01:08;;;;;;;12.85;7.43;;;27.10;74.60;;;;;;4923033;29;20115;-66
2022/05/17 08:03:34;;;;;;;12.60;7.28;;;27.00;74.50;;;;;;4921553;29;20082;-66
2022/05/17 08:05:59;;;;;;;14.50;7.63;;;26.90;74.50;;;;;;4903649;29;20464;-66
2022/05/17 08:08:25;;;;;;;17.05;7.72;;;27.00;74.50;;;;;;4923894;29;20114;-66
2022/05/17 08:10:51;;;;;;;11.77;7.40;;;26.90;74.20;;;;;;4936506;29;20051;-67
2022/05/17 08:13:17;;;;;;;12.57;7.82;;;27.00;74.30;;;;;;4938913;29;20409;-67
2022/05/17 08:15:43;;;;;;;12.82;6.55;;;27.20;74.80;;;;;;4907488;29;20047;-66
2022/05/17 08:18:09;;;;;;;11.88;6.78;;;27.10;74.70;;;;;;4924039;29;20126;-66
2022/05/17 08:20:36;;;;;;;10.77;6.47;;;27.10;74.40;;;;;;4933453;29;20058;-66
2022/05/17 08:23:02;;;;;;;12.88;6.90;;;27.20;74.50;;;;;;4922035;29;20051;-66
2022/05/17 08:28:12;;;;;;;11.02;6.55;;;27.20;73.20;;;;;;4925592;29;20106;-66
2022/05/17 08:30:38;;;;;;;12.45;6.85;;;27.30;74.40;;;;;;4917779;29;20427;-66
2022/05/17 08:33:19;;;;;;;11.00;6.40;;;27.40;74.40;;;;;;4901877;29;20406;-66
2022/05/17 08:35:52;;;;;;;11.63;6.50;;;27.50;74.50;;;;;;4919995;29;20051;-66
2022/05/17 08:38:30;;;;;;;12.85;6.38;;;27.30;74.80;;;;;;4936988;29;20055;-66
2022/05/17 08:41:00;;;;;;;16.83;6.70;;;27.30;73.60;;;;;;4919493;29;20051;-66
2022/05/17 08:43:32;;;;;;;14.48;6.13;;;27.20;74.60;;;;;;4926422;29;20058;-66
2022/05/17 08:46:13;;;;;;;10.95;5.60;;;27.20;73.00;;;;;;4906361;29;20127;-67
2022/05/17 08:48:54;;;;;;;10.10;5.28;;;27.20;73.30;;;;;;4940595;29;20043;-66
2022/05/17 08:51:28;;;;;;;10.80;5.72;;;27.30;73.20;;;;;;4914980;29;20116;-67
2022/05/17 08:53:54;;;;;;;14.25;5.70;;;27.60;75.00;;;;;;4907325;29;20087;-66
2022/05/17 08:56:20;;;;;;;11.05;5.18;;;27.20;74.30;;;;;;4930765;29;20416;-66
2022/05/17 08:58:47;;;;;;;9.70;5.18;;;27.50;74.40;;;;;;4916650;29;20107;-67
2022/05/17 09:01:25;;;;;;;8.95;5.05;;;27.20;74.50;;;;;;4938241;29;20050;-66
2022/05/17 09:03:53;;;;;;;10.75;5.18;;;27.20;73.30;;;;;;4919954;29;20054;-66
2022/05/17 09:06:30;;;;;;;12.27;5.65;;;27.10;73.00;;;;;;4928300;29;20039;-67
2022/05/17 09:09:07;;;;;;;13.07;5.03;;;27.20;73.50;;;;;;4923126;29;20048;-68
2022/05/17 09:11:57;;;;;;;13.07;5.03;;;27.60;75.30;;;;;;4938057;29;20122;-68
2022/05/17 09:14:30;;;;;;;13.77;4.78;;;27.40;73.70;;;;;;4936595;28;20054;-65
2022/05/17 09:17:00;;;;;;;;;;;27.50;75.10;;;;;;4919036;29;20486;-65
2022/05/17 09:19:26;;;;;;;9.23;4.93;;;27.10;73.60;;;;;;4929805;29;19970;-65
2022/05/17 09:21:53;;;;;;;11.43;4.72;;;27.20;74.40;;;;;;4919060;29;20042;-67
2022/05/17 09:24:27;;;;;;;13.15;4.97;;;27.20;74.60;;;;;;4920865;28;20055;-69
2022/05/17 09:27:04;;;;;;;12.00;4.40;;;27.50;75.20;;;;;;4895071;29;20051;-68
2022/05/17 09:29:35;;;;;;;13.15;5.40;;;27.20;73.40;;;;;;4919854;29;20063;-67
2022/05/17 09:32:03;;;;;;;9.20;4.13;;;27.70;73.60;;;;;;4916943;29;20032;-67
2022/05/17 09:34:36;;;;;;;10.82;4.65;;;27.20;75.00;;;;;;4938114;29;20391;-67
2022/05/17 09:37:20;;;;;;;9.80;3.67;;;27.20;75.20;;;;;;4913050;29;20055;-66
2022/05/17 09:39:50;;;;;;;9.40;4.05;;;27.30;75.20;;;;;;4938702;29;20039;-68
2022/05/17 09:42:28;;;;;;;10.07;4.10;;;27.30;75.20;;;;;;4936238;29;20494;-66
2022/05/17 09:44:56;;;;;;;9.20;3.72;;;27.50;75.50;;;;;;4903648;29;20056;-68
2022/05/17 09:47:35;;;;;;;9.00;3.85;;;27.60;75.10;;;;;;4935380;29;20047;-67
2022/05/17 09:53:05;;;;;;;11.38;4.40;;;27.50;75.10;;;;;;4915789;29;20047;-64
2022/05/17 09:55:32;;;;;;;8.88;3.50;;;27.20;75.30;;;;;;4889909;29;20051;-63
2022/05/17 09:58:03;;;;;;;9.02;4.05;;;27.20;75.00;;;;;;4918569;29;20114;-63
2022/05/17 10:00:40;;;;;;;8.80;3.92;;;27.40;75.20;;;;;;4925783;28;20059;-67
2022/05/17 10:03:12;;;;;;;10.23;4.10;;;27.40;73.50;;;;;;4932975;29;20059;-63
2022/05/17 10:05:40;;;;;;;8.95;3.58;;;27.10;74.70;;;;;;4905722;29;20130;-64
2022/05/17 10:08:57;;;;;;;9.65;3.75;;;27.40;74.70;;;;;;4931787;29;20054;-63
2022/05/17 10:11:24;;;;;;;9.50;3.88;;;27.20;73.70;;;;;;4880830;29;20057;-63
2022/05/17 10:14:00;;;;;;;11.35;3.70;;;27.10;74.80;;;;;;4847802;29;20089;-63
2022/05/17 10:16:47;;;;;;;9.15;3.65;;;27.30;73.50;;;;;;4858460;29;20057;-66
2022/05/17 10:19:17;;;;;;;11.70;3.45;;;27.30;73.60;;;;;;4846513;29;20153;-66
2022/05/17 10:22:10;;;;;;;15.45;4.18;;;27.40;75.00;;;;;;4850396;29;20053;-66
2022/05/17 10:24:45;;;;;;;11.70;3.95;;;27.10;73.40;;;;;;4856864;29;20053;-63
2022/05/17 10:27:30;;;;;;;9.05;3.50;;;27.00;75.00;;;;;;4862779;29;20419;-63
2022/05/17 10:30:10;;;;;;;7.43;3.20;;;27.10;73.60;;;;;;4847681;29;20045;-63
2022/05/17 10:32:50;;;;;;;8.32;3.55;;;27.20;73.80;;;;;;4848614;29;20408;-63
2022/05/17 10:35:28;;;;;;;8.82;3.75;;;27.40;73.80;;;;;;4861895;29;20564;-63
2022/05/17 10:37:57;;;;;;;8.55;3.63;;;27.30;74.10;;;;;;4877137;29;20057;-63
2022/05/17 10:40:33;;;;;;;10.00;3.65;;;27.00;73.50;;;;;;4869806;29;20423;-63
2022/05/17 10:43:02;;;;;;;12.23;3.60;;;27.50;74.10;;;;;;4860714;29;20213;-63
2022/05/17 10:45:36;;;;;;;9.30;4.07;;;27.20;75.00;;;;;;4862918;29;20043;-63
2022/05/17 10:48:20;;;;;;;7.97;3.58;;;27.40;75.50;;;;;;4931777;29;20052;-63
2022/05/17 10:50:58;;;;;;;9.38;3.70;;;27.10;73.90;;;;;;4928125;29;20109;-63
2022/05/17 10:53:31;;;;;;;10.43;3.70;;;27.30;74.00;;;;;;4930287;28;20059;-66
2022/05/17 10:56:06;;;;;;;9.85;3.47;;;27.30;73.80;;;;;;4904485;29;20102;-63
2022/05/17 10:58:38;;;;;;;7.00;3.30;;;27.40;75.40;;;;;;4906245;29;20055;-64
2022/05/17 11:01:04;;;;;;;;;;;27.50;73.80;;;;;;4913259;29;20494;-65
2022/05/17 11:04:07;;;;;;;9.48;3.05;;;26.90;74.80;;;;;;4937969;28;19933;-64
2022/05/17 11:06:37;;;;;;;9.00;3.75;;;27.40;74.00;;;;;;4932741;29;20497;-64
2022/05/17 11:09:24;;;;;;;7.65;3.35;;;27.40;75.30;;;;;;4921026;29;20481;-64
2022/05/17 11:12:05;;;;;;;7.80;3.50;;;27.50;73.90;;;;;;4940234;29;20134;-64
2022/05/17 11:14:37;;;;;;;8.82;3.33;;;27.10;75.20;;;;;;4908658;29;20375;-64
2022/05/17 11:17:35;;;;;;;10.03;3.43;;;27.20;75.00;;;;;;4915965;29;20098;-65
2022/05/17 11:20:22;;;;;;;12.10;3.50;;;27.30;73.90;;;;;;4907610;29;20110;-64
2022/05/17 11:22:56;;;;;;;9.27;3.47;;;27.00;73.60;;;;;;4943320;29;20091;-65
2022/05/17 11:25:43;;;;;;;8.07;3.17;;;26.90;73.90;;;;;;4943862;28;20094;-63
2022/05/17 11:28:33;;;;;;;7.95;3.17;;;27.20;73.80;;;;;;4921541;29;20123;-64
2022/05/17 11:31:09;;;;;;;7.30;3.15;;;27.00;74.20;;;;;;4941063;29;20054;-68
2022/05/17 11:33:38;;;;;;;6.72;3.05;;;27.20;74.10;;;;;;4921852;29;20126;-66
2022/05/17 11:36:41;;;;;;;10.68;3.58;;;27.10;75.60;;;;;;4948828;29;20051;-64
2022/05/17 11:39:09;;;;;;;8.30;3.20;;;27.00;74.50;;;;;;4933572;29;20082;-67
2022/05/17 11:41:34;;;;;;;8.20;3.05;;;27.00;75.70;;;;;;4914805;29;20056;-63
2022/05/17 11:44:04;;;;;;;6.90;3.20;;;26.80;75.30;;;;;;4936679;29;20051;-64
2022/05/17 11:46:32;;;;;;;8.25;3.13;;;27.10;75.60;;;;;;4946158;29;20109;-64
2022/05/17 11:48:59;;;;;;;11.52;3.90;;;26.90;75.40;;;;;;4936711;29;20055;-65
2022/05/17 11:51:29;;;;;;;12.88;4.57;;;27.20;75.80;;;;;;4904945;29;20055;-67
2022/05/17 11:53:55;;;;;;;8.85;4.28;;;26.90;75.40;;;;;;4910264;29;20043;-64
2022/05/17 11:56:24;;;;;;;11.63;5.28;;;26.80;74.90;;;;;;4880262;29;20492;-67
2022/05/17 11:59:12;;;;;;;12.43;4.55;;;26.80;75.20;;;;;;4908709;29;20107;-67
2022/05/17 12:01:38;;;;;;;12.13;4.13;;;26.90;74.00;;;;;;4925848;29;20051;-67
2022/05/17 12:04:06;;;;;;;10.40;3.70;;;26.80;75.30;;;;;;4912868;29;20055;-67
2022/05/17 12:06:53;;;;;;;8.55;3.88;;;27.00;75.40;;;;;;4902225;29;20050;-68
2022/05/17 12:09:36;;;;;;;8.00;3.67;;;26.70;74.60;;;;;;4917565;29;20058;-67
2022/05/17 12:12:27;;;;;;;10.00;3.55;;;26.90;74.70;;;;;;4897673;29;20056;-67
2022/05/17 12:15:07;;;;;;;7.90;3.60;;;26.80;74.60;;;;;;4930079;29;20047;-67
2022/05/17 12:17:55;;;;;;;8.48;3.72;;;26.60;76.10;;;;;;4923683;29;20112;-67
2022/05/17 12:20:32;;;;;;;8.48;3.63;;;26.60;76.30;;;;;;4905427;29;20047;-67
2022/05/17 12:23:06;;;;;;;9.73;4.47;;;26.70;76.10;;;;;;4904417;29;20047;-67
2022/05/17 12:25:53;;;;;;;7.43;3.97;;;26.60;76.40;;;;;;4915401;29;20129;-67
2022/05/17 12:28:21;;;;;;;11.13;4.30;;;26.60;74.70;;;;;;4925689;29;20107;-66
2022/05/17 12:30:54;;;;;;;8.68;4.30;;;26.70;76.20;;;;;;4901489;29;20058;-67
2022/05/17 12:33:20;;;;;;;8.98;4.05;;;26.90;76.50;;;;;;4919978;29;20044;-67
2022/05/17 12:35:46;;;;;;;8.35;4.25;;;26.70;75.80;;;;;;4926600;29;20554;-68
2022/05/17 12:43:56;;;;;;;6.50;3.55;;;26.50;74.90;;;;;;4902628;29;20082;-63
2022/05/17 12:46:30;;;;;;;10.38;4.07;;;26.70;74.70;;;;;;4910016;29;20379;-65
2022/05/17 12:48:56;;;;;;;9.15;3.35;;;26.60;76.40;;;;;;4897633;29;20106;-63
2022/05/17 12:51:22;;;;;;;8.48;3.00;;;26.70;76.10;;;;;;4902539;29;20043;-68
2022/05/17 12:53:53;;;;;;;8.77;3.50;;;26.50;76.00;;;;;;4906140;29;20413;-68
2022/05/17 12:56:24;;;;;;;11.50;3.97;;;26.80;76.70;;;;;;4925774;29;20044;-67
2022/05/17 12:58:54;;;;;;;8.18;4.15;;;26.60;74.70;;;;;;4951618;29;20055;-67
2022/05/17 13:01:29;;;;;;;6.38;3.08;;;26.60;76.30;;;;;;4930165;29;20047;-67
2022/05/17 13:03:56;;;;;;;12.48;3.55;;;26.60;76.50;;;;;;4930388;29;20431;-66
2022/05/17 13:06:23;;;;;;;7.70;3.10;;;26.80;76.30;;;;;;4920337;29;20054;-67
2022/05/17 13:08:49;;;;;;;7.80;3.20;;;26.50;76.20;;;;;;4882996;29;20138;-67
2022/05/17 13:11:25;;;;;;;8.10;3.17;;;26.60;76.00;;;;;;4896155;29;20122;-67
2022/05/17 13:13:59;;;;;;;11.00;3.63;;;26.90;75.20;;;;;;4906266;29;20058;-67
2022/05/17 13:16:27;;;;;;;11.00;3.15;;;26.60;76.70;;;;;;4902539;29;20383;-67